Time;durP1;ratioP1;P1;durP2;ratioP2;P2;SDS_P1;SDS_P2;PMS_P1;PMS_P2;Temp;Humidity;BMP_temperature;BMP_pressure;BME280_temperature;BME280_humidity;BME280_pressure;Samples;Min_cycle;Max_cycle;Signal;HPM_P1;HPM_P2
2022/05/20 00:00:48;;;;;;;15.72;7.97;;;;;;;11.39;100.00;101010.06;1770111;81;21008;-62
2022/05/20 00:03:16;;;;;;;14.07;7.87;;;;;;;11.32;100.00;101012.48;1769787;81;21013;-62
2022/05/20 00:05:45;;;;;;;13.80;7.20;;;;;;;11.27;100.00;101013.55;1769738;81;20986;-62
2022/05/20 00:08:12;;;;;;;12.28;6.92;;;;;;;11.21;100.00;101012.91;1769756;80;21009;-62
2022/05/20 00:10:39;;;;;;;12.18;6.55;;;;;;;11.17;100.00;101017.78;1769613;81;21038;-62
2022/05/20 00:13:09;;;;;;;12.82;6.97;;;;;;;11.32;100.00;101018.09;1769894;80;21018;-62
2022/05/20 00:15:37;;;;;;;12.68;6.47;;;;;;;11.07;100.00;101015.17;1773690;81;21053;-62
2022/05/20 00:18:05;;;;;;;16.40;6.87;;;;;;;11.01;100.00;101016.69;1780393;80;21013;-62
2022/05/20 00:20:33;;;;;;;10.93;5.50;;;;;;;11.00;100.00;101015.83;1780551;80;21486;-62
2022/05/20 00:23:03;;;;;;;12.65;5.97;;;;;;;10.96;100.00;101013.44;1780487;80;21501;-62
2022/05/20 00:25:48;;;;;;;10.03;5.72;;;;;;;10.92;100.00;101015.73;1780755;80;21497;-62
2022/05/20 00:28:22;;;;;;;10.93;5.42;;;;;;;10.85;100.00;101017.71;1780401;80;21002;-62
2022/05/20 00:31:06;;;;;;;10.32;4.80;;;;;;;10.89;100.00;101015.41;1752229;80;21138;-61
2022/05/20 00:33:36;;;;;;;10.13;4.92;;;;;;;11.05;100.00;101018.68;1780649;81;20997;-62
2022/05/20 00:36:03;;;;;;;10.38;5.03;;;;;;;10.87;100.00;101021.06;1780776;80;21013;-62
2022/05/20 00:38:31;;;;;;;9.93;4.60;;;;;;;10.85;100.00;101021.58;1780369;80;21041;-62
2022/05/20 00:40:58;;;;;;;10.45;5.17;;;;;;;10.87;100.00;101016.34;1780598;80;21561;-62
2022/05/20 00:43:36;;;;;;;10.45;4.58;;;;;;;10.87;100.00;101017.20;1780337;80;21025;-62
2022/05/20 00:46:08;;;;;;;12.70;5.42;;;;;;;10.84;100.00;101018.59;1780319;81;21033;-62
2022/05/20 00:48:37;;;;;;;7.80;4.17;;;;;;;10.78;100.00;101015.78;1779707;80;21063;-62
2022/05/20 00:51:32;;;;;;;8.08;4.35;;;;;;;10.76;100.00;101019.32;1780435;81;21029;-62
2022/05/20 00:54:21;;;;;;;5.23;3.73;;;;;;;10.72;100.00;101023.73;1780906;80;21032;-62
2022/05/20 00:57:01;;;;;;;7.83;3.72;;;;;;;10.66;100.00;101013.66;1780488;80;21521;-60
2022/05/20 00:59:31;;;;;;;6.65;3.70;;;;;;;10.57;100.00;101014.84;1780407;80;21076;-62
2022/05/20 01:02:04;;;;;;;9.00;3.62;;;;;;;10.54;100.00;101008.95;1780479;80;21060;-62
2022/05/20 01:04:33;;;;;;;8.50;3.98;;;;;;;10.46;100.00;101019.52;1779986;80;21021;-62
2022/05/20 01:07:00;;;;;;;6.80;3.62;;;;;;;10.41;100.00;101021.44;1780441;81;21060;-61
2022/05/20 01:09:27;;;;;;;7.72;4.00;;;;;;;10.39;100.00;101019.36;1780600;80;21022;-60
2022/05/20 01:11:56;;;;;;;8.55;4.03;;;;;;;10.43;100.00;101022.22;1780255;81;21525;-60
2022/05/20 01:14:26;;;;;;;5.40;3.83;;;;;;;10.47;100.00;101025.53;1780071;81;21109;-60
2022/05/20 01:16:54;;;;;;;6.35;3.83;;;;;;;10.38;100.00;101035.68;1769442;80;21049;-62
2022/05/20 01:19:54;;;;;;;8.30;3.92;;;;;;;10.35;100.00;101038.38;1766441;81;21053;-62
2022/05/20 01:22:50;;;;;;;11.38;3.47;;;;;;;10.28;100.00;101029.14;1766345;81;21096;-60
2022/05/20 01:25:17;;;;;;;10.32;3.62;;;;;;;10.19;100.00;101033.71;1766396;81;21038;-61
2022/05/20 01:27:44;;;;;;;6.00;3.67;;;;;;;10.13;100.00;101031.34;1766650;81;21069;-61
2022/05/20 01:30:15;;;;;;;6.15;3.90;;;;;;;10.09;100.00;101033.63;1766406;80;21383;-61
2022/05/20 01:32:42;;;;;;;7.28;4.00;;;;;;;10.07;100.00;101034.58;1766616;81;21037;-60
2022/05/20 01:35:26;;;;;;;9.18;3.55;;;;;;;10.08;100.00;101035.82;1766415;81;21032;-61
2022/05/20 01:37:54;;;;;;;6.87;4.08;;;;;;;10.05;100.00;101036.36;1766453;81;21033;-61
2022/05/20 01:40:21;;;;;;;8.70;4.17;;;;;;;10.02;100.00;101047.15;1766692;81;21041;-61
2022/05/20 01:42:56;;;;;;;8.45;4.00;;;;;;;9.99;100.00;101047.69;1766434;81;21030;-61
2022/05/20 01:45:33;;;;;;;9.00;4.25;;;;;;;10.05;100.00;101051.34;1766741;80;21049;-62
2022/05/20 01:48:15;;;;;;;9.03;4.35;;;;;;;10.05;100.00;101050.52;1732078;81;21041;-62
2022/05/20 01:50:51;;;;;;;10.18;4.62;;;;;;;10.02;100.00;101050.17;1764175;81;21041;-62
2022/05/20 01:53:29;;;;;;;8.83;4.37;;;;;;;9.97;100.00;101051.59;1766507;81;21076;-62
2022/05/20 01:56:10;;;;;;;12.90;4.90;;;;;;;9.92;100.00;101053.48;1766437;81;21041;-61
2022/05/20 01:58:48;;;;;;;12.55;4.37;;;;;;;9.89;100.00;101049.72;1766407;81;21049;-61
2022/05/20 02:01:39;;;;;;;8.28;4.50;;;;;;;9.85;100.00;101049.42;1762020;81;21077;-61
2022/05/20 02:04:15;;;;;;;11.00;5.12;;;;;;;9.79;100.00;101051.77;1766567;81;21546;-61
2022/05/20 02:06:50;;;;;;;7.75;4.65;;;;;;;9.77;100.00;101053.97;1766782;81;21030;-61
2022/05/20 02:09:23;;;;;;;15.32;5.50;;;;;;;9.75;100.00;101050.19;1766671;81;21033;-61
2022/05/20 02:11:54;;;;;;;11.22;5.17;;;;;;;9.77;100.00;101044.97;1766412;81;21042;-61
2022/05/20 02:14:31;;;;;;;12.80;5.37;;;;;;;9.71;100.00;101049.89;1766505;80;21108;-61
2022/05/20 02:17:13;;;;;;;15.15;5.78;;;;;;;9.71;100.00;101050.31;1776162;80;21068;-61
2022/05/20 02:20:04;;;;;;;14.58;5.80;;;;;;;9.68;100.00;101049.97;1780818;81;21065;-61
2022/05/20 02:22:38;;;;;;;13.40;6.42;;;;;;;9.66;100.00;101047.89;1780454;80;21096;-61
2022/05/20 02:25:10;;;;;;;14.18;6.45;;;;;;;9.72;100.00;101051.55;1780166;81;21076;-61
2022/05/20 02:27:42;;;;;;;12.63;6.37;;;;;;;9.68;100.00;101049.14;1780442;80;21021;-60
2022/05/20 02:30:16;;;;;;;12.55;6.80;;;;;;;9.67;100.00;101057.30;1780401;80;21045;-61
2022/05/20 02:33:04;;;;;;;13.83;6.37;;;;;;;9.69;100.00;101054.66;1780422;80;21557;-60
2022/05/20 02:35:33;;;;;;;16.05;6.83;;;;;;;9.75;100.00;101052.76;1780352;80;21053;-60
2022/05/20 02:38:20;;;;;;;18.62;7.10;;;;;;;9.73;100.00;101049.39;1780664;80;21048;-60
2022/05/20 02:40:51;;;;;;;15.28;6.95;;;;;;;9.75;100.00;101048.04;1780571;80;20993;-60
2022/05/20 02:43:20;;;;;;;17.10;7.90;;;;;;;9.76;100.00;101051.85;1780553;80;21001;-60
2022/05/20 02:45:50;;;;;;;18.52;7.47;;;;;;;9.87;100.00;101051.50;1780604;80;21025;-60
2022/05/20 02:48:20;;;;;;;18.27;8.18;;;;;;;9.82;100.00;101055.52;1780431;80;21485;-60
2022/05/20 02:50:49;;;;;;;23.98;9.73;;;;;;;9.83;100.00;101059.78;1780423;80;21557;-60
2022/05/20 02:53:17;;;;;;;18.82;9.10;;;;;;;9.83;100.00;101053.77;1780491;80;21040;-59
2022/05/20 02:55:46;;;;;;;24.60;10.55;;;;;;;9.91;100.00;101060.80;1780692;80;21522;-60
2022/05/20 03:04:12;;;;;;;21.40;10.78;;;;;;;10.13;100.00;101066.08;1780196;80;21002;-59
2022/05/20 03:06:46;;;;;;;26.20;12.58;;;;;;;10.34;100.00;101065.85;1780513;81;21037;-60
2022/05/20 03:09:17;;;;;;;23.67;11.88;;;;;;;10.36;100.00;101069.21;1780580;80;21065;-60
2022/05/20 03:11:45;;;;;;;24.20;12.68;;;;;;;10.42;100.00;101061.28;1781004;80;21052;-60
2022/05/20 03:14:15;;;;;;;24.82;12.15;;;;;;;10.55;100.00;101056.98;1780260;81;21132;-60
2022/05/20 03:16:43;;;;;;;25.48;12.68;;;;;;;10.68;100.00;101061.25;1780168;80;21545;-60
2022/05/20 03:19:10;;;;;;;24.72;13.20;;;;;;;10.78;100.00;101054.41;1780257;80;21494;-60
2022/05/20 03:21:39;;;;;;;25.23;13.13;;;;;;;10.90;100.00;101059.57;1780384;81;21045;-61
2022/05/20 03:24:08;;;;;;;24.75;12.25;;;;;;;11.02;100.00;101058.29;1780418;81;21639;-61
2022/05/20 03:26:36;;;;;;;25.65;13.40;;;;;;;11.14;100.00;101059.57;1780395;81;21005;-61
2022/05/20 03:29:05;;;;;;;30.05;13.55;;;;;;;11.22;100.00;101059.66;1780334;80;21509;-61
2022/05/20 03:31:34;;;;;;;27.20;12.93;;;;;;;11.37;100.00;101058.69;1780524;80;21051;-61
2022/05/20 03:34:05;;;;;;;30.23;14.20;;;;;;;11.49;100.00;101056.92;1780190;81;21045;-61
2022/05/20 03:36:37;;;;;;;29.02;13.48;;;;;;;11.59;100.00;101054.37;1780379;80;20990;-61
2022/05/20 03:39:06;;;;;;;29.63;14.58;;;;;;;11.70;100.00;101061.70;1780676;80;21004;-61
2022/05/20 03:41:35;;;;;;;26.80;14.60;;;;;;;11.81;100.00;101053.52;1780202;80;21037;-61
2022/05/20 03:44:02;;;;;;;26.10;14.40;;;;;;;11.97;100.00;101057.18;1780563;80;21506;-61
2022/05/20 03:46:30;;;;;;;35.25;14.90;;;;;;;12.05;100.00;101068.48;1780329;80;21049;-61
2022/05/20 03:48:59;;;;;;;32.60;14.80;;;;;;;12.12;100.00;101067.77;1780735;80;21532;-61
2022/05/20 03:51:26;;;;;;;25.88;14.50;;;;;;;12.24;100.00;101064.67;1780345;80;20994;-61
2022/05/20 03:53:53;;;;;;;26.10;15.50;;;;;;;12.35;100.00;101065.53;1780523;81;21540;-61
2022/05/20 03:56:21;;;;;;;33.33;15.38;;;;;;;12.49;100.00;101067.50;1780234;81;21045;-61
2022/05/20 03:58:50;;;;;;;30.60;15.85;;;;;;;12.65;100.00;101067.67;1780397;81;21490;-61
2022/05/20 04:04:04;;;;;;;28.25;14.25;;;;;;;13.02;100.00;101059.97;1780638;80;21028;-61
2022/05/20 04:06:31;;;;;;;28.00;14.20;;;;;;;13.20;100.00;101067.34;1780598;80;21516;-61
2022/05/20 04:08:59;;;;;;;32.33;15.13;;;;;;;13.45;100.00;101071.86;1780309;81;21037;-61
2022/05/20 04:11:28;;;;;;;30.27;14.00;;;;;;;13.61;100.00;101065.88;1780679;80;21051;-61
2022/05/20 04:13:55;;;;;;;26.97;13.65;;;;;;;13.79;100.00;101058.98;1780361;80;21108;-61
2022/05/20 04:16:22;;;;;;;26.10;13.55;;;;;;;14.01;100.00;101069.59;1780530;80;21545;-61
2022/05/20 04:18:50;;;;;;;29.23;13.75;;;;;;;14.28;100.00;101070.41;1780487;81;21069;-61
2022/05/20 04:21:17;;;;;;;20.00;12.60;;;;;;;14.52;100.00;101079.98;1780393;80;21041;-61
2022/05/20 04:23:44;;;;;;;20.75;11.12;;;;;;;14.66;100.00;101086.61;1780244;80;21080;-61
2022/05/20 04:26:15;;;;;;;13.08;6.65;;;;;;;14.88;100.00;101083.74;1780509;80;21498;-61
2022/05/20 04:28:42;;;;;;;13.55;6.12;;;;;;;15.33;85.12;101087.83;1780690;80;21494;-61
2022/05/20 04:31:11;;;;;;;13.58;6.00;;;;;;;15.62;78.28;101081.02;1780615;80;21001;-61
2022/05/20 04:33:39;;;;;;;10.58;5.17;;;;;;;15.98;75.30;101082.02;1780311;81;21030;-61
2022/05/20 04:36:07;;;;;;;12.63;5.10;;;;;;;16.00;70.98;101078.04;1780604;80;21060;-61
2022/05/20 04:38:35;;;;;;;9.03;4.80;;;;;;;16.20;70.86;101080.31;1780319;80;21509;-61
2022/05/20 04:49:20;;;;;;;8.95;4.12;;;;;;;16.75;66.72;101096.97;1780629;80;21068;-61
2022/05/20 04:51:48;;;;;;;14.10;4.50;;;;;;;16.86;64.71;101104.14;1780390;81;21111;-60
2022/05/20 04:57:03;;;;;;;7.15;3.80;;;;;;;17.10;61.86;101100.50;1780347;80;21045;-61
2022/05/20 04:59:39;;;;;;;6.97;3.72;;;;;;;17.16;59.60;101095.39;1780512;80;20969;-61
2022/05/20 05:02:07;;;;;;;10.23;4.12;;;;;;;17.34;60.80;101094.23;1780338;80;21508;-61
2022/05/20 05:04:37;;;;;;;6.58;3.45;;;;;;;17.48;59.51;101102.47;1780642;80;20977;-61
2022/05/20 05:07:09;;;;;;;7.30;3.50;;;;;;;17.54;59.60;101105.98;1780313;81;21037;-61
2022/05/20 05:09:33;;;;;;;6.67;2.92;;;;;;;17.63;58.83;101108.45;1780177;80;21036;-61
2022/05/20 05:12:00;;;;;;;5.03;2.95;;;;;;;17.70;57.86;101101.94;1780315;81;21104;-61
2022/05/20 05:14:28;;;;;;;11.80;3.08;;;;;;;17.69;57.16;101104.16;1780289;80;21116;-60
2022/05/20 05:16:55;;;;;;;7.55;2.70;;;;;;;17.76;57.90;101092.42;1776266;79;21088;-61
2022/05/20 05:19:24;;;;;;;6.97;2.98;;;;;;;17.77;55.67;101100.59;1766698;80;21116;-61
2022/05/20 05:21:51;;;;;;;6.65;2.80;;;;;;;17.87;55.80;101098.73;1766401;81;21061;-61
2022/05/20 05:24:18;;;;;;;5.72;2.72;;;;;;;18.04;55.77;101097.14;1766563;81;21018;-59
2022/05/20 05:26:45;;;;;;;11.68;2.70;;;;;;;17.96;55.35;101093.76;1766399;81;21077;-59
2022/05/20 05:29:12;;;;;;;7.40;3.02;;;;;;;18.00;54.57;101095.23;1766711;80;21041;-59
2022/05/20 05:31:42;;;;;;;7.37;2.70;;;;;;;18.13;55.95;101100.45;1766456;81;21041;-59
2022/05/20 05:34:10;;;;;;;5.30;3.00;;;;;;;18.32;54.91;101105.25;1766694;81;21073;-60
2022/05/20 05:36:37;;;;;;;6.47;2.67;;;;;;;18.30;53.92;101101.09;1766355;81;21056;-59
2022/05/20 05:39:07;;;;;;;8.63;2.77;;;;;;;18.46;52.31;101112.16;1766326;81;21054;-59
2022/05/20 05:41:35;;;;;;;6.70;2.85;;;;;;;18.66;52.16;101104.28;1766703;81;21089;-59
2022/05/20 05:44:03;;;;;;;5.70;2.40;;;;;;;18.74;51.53;101107.67;1766376;81;21030;-60
2022/05/20 05:46:31;;;;;;;4.55;2.40;;;;;;;18.90;51.32;101099.66;1766615;81;21069;-60
2022/05/20 05:48:59;;;;;;;5.00;2.30;;;;;;;18.91;50.82;101100.83;1766377;81;21042;-60
2022/05/20 05:51:26;;;;;;;6.12;2.30;;;;;;;19.15;50.61;101096.14;1766539;80;21081;-60
2022/05/20 05:53:56;;;;;;;6.50;2.25;;;;;;;19.29;50.80;101104.30;1766319;80;21044;-60
2022/05/20 05:56:23;;;;;;;6.10;2.30;;;;;;;19.32;48.92;101108.84;1766601;81;21057;-60
2022/05/20 05:58:51;;;;;;;7.55;2.02;;;;;;;19.57;49.04;101107.89;1766437;81;21521;-60
2022/05/20 06:01:19;;;;;;;9.65;4.45;;;;;;;19.58;48.60;101101.70;1747138;81;21081;-60
2022/05/20 06:03:46;;;;;;;9.93;2.95;;;;;;;19.78;49.85;101101.59;1766386;81;21010;-60
2022/05/20 06:06:13;;;;;;;8.60;3.05;;;;;;;19.62;48.25;101103.63;1766606;81;21029;-60
2022/05/20 06:08:40;;;;;;;6.92;3.15;;;;;;;19.50;48.59;101100.12;1766298;81;21046;-61
2022/05/20 06:11:07;;;;;;;4.92;2.33;;;;;;;19.48;48.77;101101.19;1766085;80;21596;-60
2022/05/20 06:13:35;;;;;;;5.12;2.17;;;;;;;19.56;49.27;101097.07;1765244;81;21047;-59
2022/05/20 06:16:03;;;;;;;4.50;2.10;;;;;;;19.49;48.80;101099.78;1764952;81;21033;-59
2022/05/20 06:18:30;;;;;;;5.12;2.20;;;;;;;19.45;49.47;101108.78;1766872;80;21475;-60
2022/05/20 06:20:59;;;;;;;7.33;2.45;;;;;;;19.50;49.83;101109.75;1745835;82;21547;-62
2022/05/20 06:23:26;;;;;;;4.90;2.20;;;;;;;19.63;50.85;101098.78;1765192;81;21030;-60
2022/05/20 06:25:54;;;;;;;5.83;2.10;;;;;;;19.61;48.79;101098.06;1747730;81;21006;-60
2022/05/20 06:28:21;;;;;;;6.85;2.17;;;;;;;19.60;49.77;101104.22;1765662;81;21010;-60
2022/05/20 06:30:48;;;;;;;3.65;1.95;;;;;;;19.59;49.87;101104.70;1767319;81;21037;-60
2022/05/20 06:33:15;;;;;;;4.62;2.10;;;;;;;19.64;48.83;101102.22;1765364;80;21014;-61
2022/05/20 06:41:14;;;;;;;4.87;2.20;;;;;;;20.13;48.92;101102.09;1766683;81;21053;-59
2022/05/20 06:43:41;;;;;;;5.15;1.90;;;;;;;20.08;48.74;101113.34;1766253;81;21093;-60
2022/05/20 06:46:10;;;;;;;3.65;1.90;;;;;;;20.17;47.99;101103.98;1766714;81;21009;-61
2022/05/20 06:48:42;;;;;;;4.67;2.30;;;;;;;20.24;48.04;101107.81;1766135;81;21054;-61
2022/05/20 06:51:12;;;;;;;3.90;2.33;;;;;;;20.17;49.43;101108.75;1766455;81;21021;-61
2022/05/20 06:53:41;;;;;;;5.67;2.40;;;;;;;20.35;48.53;101102.58;1766696;81;21013;-60
2022/05/20 06:56:10;;;;;;;3.95;2.50;;;;;;;20.43;50.46;101109.85;1766375;81;21510;-60
2022/05/20 06:58:37;;;;;;;8.80;2.70;;;;;;;20.46;48.55;101113.55;1747556;81;21050;-61
2022/05/20 07:01:04;;;;;;;5.15;2.62;;;;;;;20.61;48.30;101112.39;1766280;80;21049;-61
2022/05/20 07:03:32;;;;;;;5.90;2.87;;;;;;;20.71;49.35;101115.63;1766470;81;21069;-61
2022/05/20 07:06:04;;;;;;;7.33;2.30;;;;;;;20.79;48.22;101109.32;1766561;80;21510;-61
2022/05/20 07:08:34;;;;;;;7.00;2.67;;;;;;;20.69;47.85;101118.84;1766454;80;21057;-61
2022/05/20 07:11:02;;;;;;;4.08;2.50;;;;;;;20.59;46.92;101118.22;1766592;80;21025;-61
2022/05/20 07:13:31;;;;;;;3.60;2.40;;;;;;;20.81;47.57;101115.27;1766286;80;21030;-60
2022/05/20 07:15:59;;;;;;;8.35;3.30;;;;;;;20.78;46.55;101122.03;1747464;81;21061;-60
2022/05/20 07:18:28;;;;;;;5.58;3.17;;;;;;;21.04;46.95;101125.23;1775844;79;21077;-61
2022/05/20 07:20:56;;;;;;;6.25;3.60;;;;;;;21.09;47.37;101116.56;1780559;80;21033;-61
2022/05/20 07:23:26;;;;;;;6.72;3.00;;;;;;;21.07;47.62;101113.72;1780665;80;22883;-60
2022/05/20 07:25:52;;;;;;;5.20;2.90;;;;;;;21.05;46.85;101120.38;1780483;80;21513;-61
2022/05/20 07:28:20;;;;;;;6.20;3.00;;;;;;;21.18;48.15;101114.50;1780676;80;21040;-61
2022/05/20 07:30:47;;;;;;;10.15;4.40;;;;;;;21.39;48.00;101117.22;1780475;80;21037;-60
2022/05/20 07:33:16;;;;;;;12.45;5.00;;;;;;;21.16;47.42;101115.10;1780564;80;21061;-61
2022/05/20 07:35:43;;;;;;;9.45;4.20;;;;;;;21.19;47.01;101112.26;1780274;80;21029;-61
2022/05/20 07:38:10;;;;;;;6.67;3.98;;;;;;;21.26;46.74;101115.21;1780623;80;21473;-61
2022/05/20 07:40:38;;;;;;;7.47;4.10;;;;;;;21.48;45.81;101110.92;1780328;81;21029;-62
2022/05/20 07:43:05;;;;;;;15.55;7.37;;;;;;;21.69;47.28;101111.78;1780624;80;21064;-61
2022/05/20 07:45:33;;;;;;;23.90;7.85;;;;;;;21.71;45.02;101117.72;1780407;80;21007;-61
2022/05/20 07:48:00;;;;;;;15.43;6.03;;;;;;;21.72;45.12;101108.09;1780333;80;21110;-61
2022/05/20 07:50:29;;;;;;;10.05;4.87;;;;;;;21.56;44.54;101111.95;1780416;80;21065;-62
2022/05/20 07:55:53;;;;;;;17.23;6.20;;;;;;;21.51;40.83;101115.89;1780222;80;21037;-61
2022/05/20 07:58:26;;;;;;;16.55;6.92;;;;;;;21.76;42.16;101122.13;1780681;80;20994;-61
2022/05/20 08:00:58;;;;;;;11.45;5.12;;;;;;;21.85;41.25;101121.02;1780542;80;21009;-61
2022/05/20 08:06:08;;;;;;;8.60;4.33;;;;;;;21.60;39.63;101120.41;1780341;81;21526;-61
2022/05/20 08:08:35;;;;;;;12.37;3.50;;;;;;;21.94;40.93;101116.34;1780666;80;21033;-61
2022/05/20 08:11:02;;;;;;;7.70;2.80;;;;;;;22.05;41.33;101111.02;1780333;80;21041;-62
2022/05/20 08:13:29;;;;;;;11.08;3.40;;;;;;;22.25;40.74;101109.88;1780405;81;21127;-61
2022/05/20 08:15:57;;;;;;;6.70;3.10;;;;;;;22.04;39.15;101109.38;1780681;80;21476;-61
2022/05/20 08:18:24;;;;;;;6.15;2.70;;;;;;;22.26;41.08;101108.91;1780316;81;21163;-60
2022/05/20 08:20:55;;;;;;;8.63;2.80;;;;;;;22.12;40.72;101114.81;1780686;80;21045;-61
2022/05/20 08:23:22;;;;;;;5.70;2.50;;;;;;;22.14;40.07;101119.91;1780380;81;21064;-61
2022/05/20 08:25:49;;;;;;;3.55;2.47;;;;;;;22.23;40.76;101115.70;1780545;80;21092;-60
2022/05/20 08:28:18;;;;;;;8.08;3.22;;;;;;;22.08;41.13;101107.31;1780423;81;21088;-61
2022/05/20 08:30:45;;;;;;;6.20;3.00;;;;;;;22.24;41.88;101099.02;1780680;80;21041;-62
2022/05/20 08:33:14;;;;;;;8.10;2.52;;;;;;;22.27;40.37;101110.59;1780563;81;21037;-62
2022/05/20 08:35:43;;;;;;;6.50;2.80;;;;;;;22.60;41.78;101102.45;1780620;80;21018;-62
2022/05/20 08:38:11;;;;;;;7.90;3.45;;;;;;;22.52;41.26;101098.34;1780257;81;21057;-61
2022/05/20 08:40:45;;;;;;;5.25;3.37;;;;;;;22.47;40.93;101103.17;1780418;81;21513;-61
2022/05/20 08:43:13;;;;;;;8.70;2.92;;;;;;;22.66;41.48;101092.41;1780073;80;21072;-61
2022/05/20 08:45:41;;;;;;;10.43;3.80;;;;;;;22.87;41.50;101083.15;1780361;80;21044;-62
2022/05/20 08:48:11;;;;;;;11.68;4.60;;;;;;;22.77;39.76;101087.91;1781069;80;21001;-61
2022/05/20 08:50:53;;;;;;;11.63;3.55;;;;;;;22.74;40.83;101088.16;1780557;80;21011;-61
2022/05/20 08:53:37;;;;;;;6.03;2.80;;;;;;;22.66;40.80;101095.86;1780668;80;21008;-61
2022/05/20 08:56:08;;;;;;;11.85;3.70;;;;;;;22.72;40.40;101094.50;1779258;81;21033;-61
2022/05/20 08:58:42;;;;;;;7.23;3.87;;;;;;;22.60;40.40;101081.95;1779956;80;21005;-61
2022/05/20 09:01:09;;;;;;;11.15;4.20;;;;;;;22.53;39.68;101097.40;1779610;80;22318;-61
2022/05/20 09:03:38;;;;;;;9.68;4.25;;;;;;;22.71;41.16;101091.52;1779591;80;21087;-61
2022/05/20 09:06:13;;;;;;;14.43;4.62;;;;;;;22.89;40.38;101100.91;1779396;80;21880;-61
2022/05/20 09:08:42;;;;;;;15.03;5.47;;;;;;;22.75;40.50;101092.45;1779570;80;21056;-61
2022/05/20 09:11:15;;;;;;;9.83;4.58;;;;;;;22.91;40.58;101084.08;1779460;80;21555;-61
2022/05/20 09:16:34;;;;;;;6.22;3.77;;;;;;;23.05;40.41;101096.50;1779545;81;21033;-61
2022/05/20 09:19:12;;;;;;;8.65;3.20;;;;;;;23.07;40.14;101089.31;1779463;79;21095;-61
2022/05/20 09:21:43;;;;;;;7.75;3.27;;;;;;;22.95;39.29;101092.50;1776282;80;21005;-61
2022/05/20 09:24:19;;;;;;;10.93;3.75;;;;;;;23.08;41.21;101084.43;1779673;80;21029;-61
2022/05/20 09:27:03;;;;;;;7.53;3.45;;;;;;;22.76;40.13;101099.84;1779641;80;21080;-61
2022/05/20 09:29:55;;;;;;;6.72;3.80;;;;;;;22.71;39.70;101093.69;1742306;80;21040;-60
2022/05/20 09:32:38;;;;;;;5.92;3.22;;;;;;;22.63;39.95;101092.66;1779472;80;21056;-60
2022/05/20 09:35:23;;;;;;;6.90;2.90;;;;;;;22.85;40.61;101078.05;1779555;80;21050;-60
2022/05/20 09:37:53;;;;;;;4.22;2.52;;;;;;;22.91;39.73;101074.89;1779389;80;21033;-60
2022/05/20 09:40:41;;;;;;;4.90;2.42;;;;;;;22.78;39.94;101085.61;1779572;80;21002;-61
2022/05/20 09:43:28;;;;;;;3.77;2.00;;;;;;;23.02;40.02;101077.91;1779501;80;21044;-61
2022/05/20 09:46:00;;;;;;;4.50;2.10;;;;;;;22.90;39.86;101085.03;1779546;80;21057;-62
2022/05/20 09:48:54;;;;;;;4.40;2.45;;;;;;;22.84;39.82;101084.25;1779336;80;21549;-61
2022/05/20 09:51:29;;;;;;;4.62;2.20;;;;;;;22.92;40.51;101077.85;1779497;80;21048;-61
2022/05/20 09:54:17;;;;;;;2.75;1.80;;;;;;;22.82;40.22;101084.05;1758462;80;21576;-61
2022/05/20 09:57:06;;;;;;;5.70;2.67;;;;;;;23.05;41.10;101078.12;1779425;80;21247;-61
2022/05/20 09:59:52;;;;;;;5.65;2.42;;;;;;;23.17;40.63;101074.41;1779201;81;21072;-60
2022/05/20 10:02:35;;;;;;;6.15;2.70;;;;;;;23.07;39.90;101070.94;1779714;80;21037;-60
2022/05/20 10:05:17;;;;;;;6.85;2.50;;;;;;;23.28;41.37;101068.22;1751122;81;21576;-60
2022/05/20 10:07:49;;;;;;;7.83;2.33;;;;;;;23.33;40.40;101066.00;1779541;80;21072;-61
2022/05/20 10:10:45;;;;;;;3.72;2.30;;;;;;;23.40;40.46;101073.20;1779564;80;21596;-60
2022/05/20 10:13:42;;;;;;;6.80;2.10;;;;;;;23.45;40.30;101066.70;1779346;80;21903;-60
2022/05/20 10:16:25;;;;;;;7.85;2.72;;;;;;;23.51;39.70;101059.58;1802497;79;23469;-60
2022/05/20 10:19:11;;;;;;;5.58;2.27;;;;;;;23.29;39.88;101064.61;1762484;80;21032;-60
2022/05/20 10:21:55;;;;;;;9.15;2.80;;;;;;;23.38;41.22;101071.69;1728739;81;21030;-60
2022/05/20 10:25:01;;;;;;;3.25;2.12;;;;;;;23.24;40.14;101052.39;1729123;83;21039;-60
2022/05/20 10:27:59;;;;;;;5.10;2.20;;;;;;;23.31;40.68;101063.50;1726215;82;21066;-59
2022/05/20 10:33:29;;;;;;;7.22;2.40;;;;;;;23.57;39.86;101049.34;1729220;83;21042;-60
2022/05/20 10:36:21;;;;;;;5.05;2.55;;;;;;;23.56;40.74;101054.72;1729157;83;21022;-60
2022/05/20 10:39:03;;;;;;;7.25;2.58;;;;;;;23.54;40.90;101069.80;1729041;83;21034;-61
2022/05/20 10:41:38;;;;;;;6.20;2.40;;;;;;;23.68;40.95;101048.38;1728540;83;21550;-61
2022/05/20 10:50:42;;;;;;;3.80;2.17;;;;;;;23.87;42.03;101044.09;1729204;83;21035;-61
2022/05/20 10:53:52;;;;;;;6.47;2.30;;;;;;;23.72;43.99;101048.45;1728072;83;21109;-61
2022/05/20 10:56:39;;;;;;;7.50;2.30;;;;;;;23.77;42.74;101046.23;1724188;83;21519;-61
2022/05/20 10:59:44;;;;;;;4.15;2.50;;;;;;;23.73;44.02;101051.41;1728989;83;21094;-61
2022/05/20 11:02:36;;;;;;;6.30;2.62;;;;;;;23.71;42.63;101034.94;1729530;83;21082;-61
2022/05/20 11:05:17;;;;;;;7.08;2.62;;;;;;;23.80;43.05;101047.75;1729015;83;21023;-61
2022/05/20 11:08:02;;;;;;;6.97;2.40;;;;;;;23.70;43.17;101029.82;1729106;83;21070;-61
2022/05/20 11:11:02;;;;;;;6.70;2.58;;;;;;;23.98;42.98;101028.96;1728849;83;21523;-61
2022/05/20 11:14:00;;;;;;;5.05;2.67;;;;;;;24.05;43.91;101025.76;1727894;83;21079;-61
2022/05/20 11:16:53;;;;;;;6.35;2.52;;;;;;;24.46;41.60;101015.80;1678852;85;21079;-61
2022/05/20 11:19:49;;;;;;;6.17;2.33;;;;;;;24.08;42.21;101031.57;1665241;85;21043;-61
2022/05/20 11:22:49;;;;;;;8.43;2.60;;;;;;;23.99;42.40;101020.11;1692213;85;21044;-60
2022/05/20 11:25:46;;;;;;;7.17;2.50;;;;;;;23.91;41.96;101021.81;1692009;85;21063;-60
2022/05/20 11:28:25;;;;;;;3.77;2.22;;;;;;;23.75;41.64;101013.98;1692995;85;21508;-61
2022/05/20 11:31:09;;;;;;;4.55;2.05;;;;;;;23.61;41.97;101018.36;1684270;84;21096;-60
2022/05/20 11:33:44;;;;;;;8.05;2.50;;;;;;;23.80;42.23;101001.74;1692872;84;21048;-61
2022/05/20 11:36:56;;;;;;;4.03;2.10;;;;;;;23.84;41.86;101011.00;1712988;84;21083;-60
2022/05/20 11:39:55;;;;;;;4.30;2.42;;;;;;;24.05;42.37;101016.09;1700470;84;21000;-61
2022/05/20 11:42:39;;;;;;;8.18;2.80;;;;;;;24.12;41.56;100997.44;1700280;84;21098;-60
2022/05/20 11:45:39;;;;;;;5.83;2.40;;;;;;;24.03;42.22;100997.45;1700327;84;21102;-61
2022/05/20 11:48:48;;;;;;;4.87;2.52;;;;;;;24.35;42.43;101001.00;1699832;84;21079;-61
2022/05/20 11:51:44;;;;;;;3.47;2.10;;;;;;;24.30;41.65;101006.72;1611332;88;21078;-60
2022/05/20 11:54:35;;;;;;;8.10;2.80;;;;;;;24.04;42.25;100999.13;1657144;86;21091;-60
2022/05/20 11:57:11;;;;;;;9.00;2.70;;;;;;;24.39;42.24;100995.80;1664574;86;21059;-60
2022/05/20 11:59:50;;;;;;;5.72;2.60;;;;;;;24.08;41.87;100990.80;1687747;84;21040;-60
2022/05/20 12:02:21;;;;;;;4.80;2.98;;;;;;;24.38;44.06;100984.45;1700386;83;21071;-60
2022/05/20 12:04:50;;;;;;;5.12;2.85;;;;;;;24.48;42.69;100990.16;1700449;84;20988;-60
2022/05/20 12:07:23;;;;;;;8.45;2.87;;;;;;;24.33;42.29;100985.85;1700454;84;21075;-60
2022/05/20 12:09:56;;;;;;;8.73;3.22;;;;;;;24.07;42.68;100986.99;1700644;84;21075;-60
2022/05/20 12:12:31;;;;;;;8.68;3.20;;;;;;;24.24;42.67;100973.09;1700500;84;20992;-60
2022/05/20 12:15:21;;;;;;;8.88;3.80;;;;;;;24.37;43.18;100970.11;1700781;83;21134;-60
2022/05/20 12:17:51;;;;;;;7.45;3.30;;;;;;;24.54;43.60;100959.34;1703446;82;21613;-61
2022/05/20 12:26:24;;;;;;;7.03;4.10;;;;;;;24.13;44.34;100960.14;1692577;84;21416;-61
2022/05/20 12:28:53;;;;;;;5.87;3.70;;;;;;;24.29;45.02;100959.03;1676042;85;21329;-62
2022/05/20 12:31:31;;;;;;;4.53;3.80;;;;;;;24.70;45.24;100954.25;1675625;85;21040;-61
2022/05/20 12:34:30;;;;;;;12.07;4.08;;;;;;;24.85;46.49;100949.78;1652834;85;21063;-61
2022/05/20 12:36:57;;;;;;;10.90;4.78;;;;;;;24.86;45.75;100949.64;1671520;86;21670;-61
2022/05/20 12:39:49;;;;;;;9.73;4.70;;;;;;;24.87;45.33;100952.59;1687095;85;21650;-61